Time;durP1;ratioP1;P1;durP2;ratioP2;P2;SDS_P1;SDS_P2;PMS_P1;PMS_P2;Temp;Humidity;BMP_temperature;BMP_pressure;BME280_temperature;BME280_humidity;BME280_pressure;Samples;Min_cycle;Max_cycle;Signal;HPM_P1;HPM_P2
2023/01/29 00:01:49;;;;;;;13.60;7.93;;;;;;;2.15;100.00;102073.75;5076595;28;20028;-72
2023/01/29 00:04:15;;;;;;;16.73;9.02;;;;;;;2.12;100.00;102072.25;5100986;28;20027;-72
2023/01/29 00:06:41;;;;;;;17.25;8.30;;;;;;;2.14;100.00;102072.03;5098305;28;20023;-72
2023/01/29 00:09:06;;;;;;;14.82;8.25;;;;;;;2.14;100.00;102069.28;5084462;28;20051;-72
2023/01/29 00:11:32;;;;;;;17.38;9.02;;;;;;;2.14;100.00;102064.66;5108811;28;20416;-72
2023/01/29 00:13:57;;;;;;;16.92;7.90;;;;;;;2.12;100.00;102061.28;5095207;28;20036;-72
2023/01/29 00:16:23;;;;;;;18.30;8.52;;;;;;;2.12;100.00;102060.44;5090352;28;20039;-72
2023/01/29 00:18:48;;;;;;;14.02;8.70;;;;;;;2.13;100.00;102059.41;5105828;28;20038;-72
2023/01/29 00:21:18;;;;;;;22.70;9.80;;;;;;;2.12;100.00;102061.28;5084264;28;20027;-72
2023/01/29 00:23:44;;;;;;;35.95;15.90;;;;;;;2.12;100.00;102054.97;5086690;28;20458;-72
2023/01/29 00:26:09;;;;;;;26.42;12.75;;;;;;;2.13;100.00;102056.66;5081035;28;20023;-72
2023/01/29 00:28:35;;;;;;;35.42;16.65;;;;;;;2.10;100.00;102046.94;5104378;28;20050;-72
2023/01/29 00:31:07;;;;;;;28.88;14.52;;;;;;;2.10;100.00;102051.56;5083275;28;20128;-72
2023/01/29 00:33:33;;;;;;;23.20;11.33;;;;;;;2.12;100.00;102060.44;5104806;28;20032;-72
2023/01/29 00:36:03;;;;;;;22.10;10.85;;;;;;;2.10;100.00;102051.56;5098640;28;20024;-72
2023/01/29 00:38:28;;;;;;;23.83;11.75;;;;;;;2.11;100.00;102058.72;5103820;28;20060;-72
2023/01/29 00:46:22;;;;;;;19.27;9.35;;;;;;;2.09;100.00;102045.25;5089202;28;20030;-72
2023/01/29 00:48:48;;;;;;;18.05;9.68;;;;;;;2.11;100.00;102047.78;5103328;28;20019;-72
2023/01/29 00:51:13;;;;;;;18.83;9.43;;;;;;;2.07;100.00;102041.84;5105337;28;20035;-72
2023/01/29 00:53:39;;;;;;;17.98;9.20;;;;;;;2.07;100.00;102041.84;5108504;28;20035;-72
2023/01/29 00:56:04;;;;;;;16.95;9.02;;;;;;;2.10;100.00;102040.59;5105654;28;20021;-72
2023/01/29 00:58:33;;;;;;;17.33;9.40;;;;;;;2.09;100.00;102041.63;5094580;28;20086;-72
2023/01/29 01:01:00;;;;;;;21.60;9.50;;;;;;;2.08;100.00;102042.69;5104383;28;20024;-72
2023/01/29 01:03:25;;;;;;;15.85;8.80;;;;;;;2.07;100.00;102041.00;5111144;28;20055;-72
2023/01/29 01:06:02;;;;;;;15.73;9.40;;;;;;;2.10;100.00;102041.44;5105341;28;20380;-72
2023/01/29 01:11:11;;;;;;;14.73;8.35;;;;;;;2.07;100.00;102038.28;5115405;28;20038;-72
2023/01/29 01:13:37;;;;;;;16.27;8.75;;;;;;;2.07;100.00;102035.53;5118560;28;20035;-72
2023/01/29 01:16:08;;;;;;;14.73;7.95;;;;;;;2.10;100.00;102046.09;5118460;28;20125;-72
2023/01/29 01:18:34;;;;;;;17.13;8.55;;;;;;;2.07;100.00;102041.00;5119025;28;20080;-72
2023/01/29 01:20:59;;;;;;;14.50;7.80;;;;;;;2.07;100.00;102041.00;5118863;28;20028;-72
2023/01/29 01:23:25;;;;;;;14.93;8.52;;;;;;;2.05;100.00;102040.34;5053472;28;20028;-72
2023/01/29 01:25:51;;;;;;;14.63;7.68;;;;;;;2.07;100.00;102043.75;5104987;28;20024;-72
2023/01/29 01:28:16;;;;;;;12.82;7.78;;;;;;;2.07;100.00;102044.59;5096821;28;20032;-72
2023/01/29 01:30:42;;;;;;;15.23;8.13;;;;;;;2.05;100.00;102038.47;5097053;28;20028;-72
2023/01/29 01:33:07;;;;;;;15.25;8.60;;;;;;;2.06;100.00;102033.81;5110449;28;20032;-72
2023/01/29 01:35:33;;;;;;;14.23;8.25;;;;;;;2.04;100.00;102041.41;5097751;28;20051;-72
2023/01/29 01:37:58;;;;;;;17.55;9.07;;;;;;;2.01;100.00;102042.66;5083112;28;20461;-72
2023/01/29 01:40:24;;;;;;;20.08;10.35;;;;;;;2.00;100.00;102040.94;5079990;28;20031;-72
2023/01/29 01:42:54;;;;;;;16.30;8.10;;;;;;;2.01;100.00;102043.50;5104445;28;20365;-72
2023/01/29 01:45:27;;;;;;;16.35;8.75;;;;;;;2.00;100.00;102041.78;5066757;28;20020;-73
2023/01/29 01:47:59;;;;;;;16.90;8.93;;;;;;;2.03;100.00;102053.41;5109289;28;20034;-73
2023/01/29 01:50:39;;;;;;;17.50;8.63;;;;;;;1.99;100.00;102056.53;5098325;28;20039;-72
2023/01/29 01:53:13;;;;;;;14.27;8.50;;;;;;;1.98;100.00;102060.34;5074261;28;20027;-72
2023/01/29 01:55:43;;;;;;;13.63;8.43;;;;;;;1.99;100.00;102073.00;5094387;28;21032;-72
2023/01/29 01:58:11;;;;;;;12.55;8.63;;;;;;;1.98;100.00;102082.25;5086235;28;20032;-73
2023/01/29 02:00:36;;;;;;;17.00;8.77;;;;;;;1.98;100.00;102087.75;5097460;28;20070;-72
2023/01/29 02:11:27;;;;;;;11.35;7.20;;;;;;;1.94;100.00;102050.81;5081897;28;20024;-72
2023/01/29 02:13:53;;;;;;;11.73;6.57;;;;;;;1.95;100.00;102048.91;5097362;28;20032;-72
2023/01/29 02:16:21;;;;;;;10.25;6.78;;;;;;;1.95;100.00;102044.31;5096696;28;20043;-72
2023/01/29 02:18:47;;;;;;;12.35;6.95;;;;;;;1.95;100.00;102041.56;5053182;28;20027;-72
2023/01/29 02:21:38;;;;;;;12.32;6.68;;;;;;;1.93;100.00;102045.56;5078209;28;20426;-72
2023/01/29 02:24:45;;;;;;;15.90;7.55;;;;;;;1.92;100.00;102044.72;5075168;28;20031;-72
2023/01/29 02:27:28;;;;;;;12.25;6.15;;;;;;;1.93;100.00;102045.56;5078236;28;20081;-72
2023/01/29 02:30:14;;;;;;;14.45;7.38;;;;;;;1.92;100.00;102043.84;5097115;28;20115;-72
2023/01/29 02:32:53;;;;;;;12.73;6.90;;;;;;;1.94;100.00;102047.22;5081021;28;20050;-72
2023/01/29 02:35:28;;;;;;;15.00;6.63;;;;;;;1.94;100.00;102034.38;5105570;28;20039;-72
2023/01/29 02:38:03;;;;;;;12.85;6.35;;;;;;;1.95;100.00;102037.94;5110722;28;20052;-72
2023/01/29 02:40:29;;;;;;;10.07;6.05;;;;;;;1.95;100.00;102027.88;5096780;28;20029;-72
2023/01/29 02:43:07;;;;;;;10.50;6.15;;;;;;;1.95;100.00;102032.47;5096432;28;20028;-72
2023/01/29 02:45:44;;;;;;;10.13;5.85;;;;;;;1.96;100.00;102028.72;5084878;28;20035;-72
2023/01/29 02:48:14;;;;;;;8.48;5.55;;;;;;;1.97;100.00;102024.91;5078523;28;20043;-72
2023/01/29 02:50:56;;;;;;;11.88;6.57;;;;;;;1.96;100.00;102021.31;5098580;28;20059;-72
2023/01/29 02:53:55;;;;;;;10.73;6.70;;;;;;;1.98;100.00;102026.63;5066605;28;20043;-72
2023/01/29 02:56:23;;;;;;;10.07;6.10;;;;;;;1.97;100.00;102022.16;5092183;28;20023;-72
2023/01/29 02:58:52;;;;;;;9.95;5.50;;;;;;;1.96;100.00;102020.50;5098220;28;20051;-72
2023/01/29 03:01:25;;;;;;;10.32;6.25;;;;;;;1.96;100.00;102015.00;5096039;28;20472;-72
2023/01/29 03:03:54;;;;;;;12.85;6.10;;;;;;;1.93;100.00;102019.00;5064416;28;20437;-72
2023/01/29 03:06:27;;;;;;;14.10;6.13;;;;;;;1.95;100.00;102016.91;5078834;28;20048;-72
2023/01/29 03:09:13;;;;;;;11.35;6.25;;;;;;;1.96;100.00;102017.75;5091214;28;20092;-72
2023/01/29 03:11:45;;;;;;;13.95;6.45;;;;;;;1.96;100.00;102015.84;5077756;28;20046;-72
2023/01/29 03:14:15;;;;;;;9.30;5.38;;;;;;;1.92;100.00;102017.31;5086466;28;20111;-73
2023/01/29 03:16:47;;;;;;;11.50;6.10;;;;;;;1.92;100.00;102016.44;5091157;28;20035;-72
2023/01/29 03:19:37;;;;;;;13.68;6.03;;;;;;;1.91;100.00;102004.63;5088200;28;20032;-72
2023/01/29 03:22:03;;;;;;;11.30;5.65;;;;;;;1.89;100.00;102003.97;5070987;28;20032;-72
2023/01/29 03:33:17;;;;;;;16.00;7.22;;;;;;;1.85;100.00;102010.91;5088448;28;20038;-72
2023/01/29 03:36:05;;;;;;;12.98;6.13;;;;;;;1.82;100.00;102011.31;5084108;28;20028;-72
2023/01/29 03:38:31;;;;;;;10.40;5.82;;;;;;;1.82;100.00;102016.81;5084874;28;20054;-72
2023/01/29 03:41:09;;;;;;;12.77;6.10;;;;;;;1.83;100.00;102017.66;5083807;28;20024;-72
2023/01/29 03:43:56;;;;;;;12.13;5.90;;;;;;;1.78;100.00;102005.41;5101838;28;20039;-72
2023/01/29 03:46:48;;;;;;;11.85;6.40;;;;;;;1.79;100.00;102011.72;5085782;28;20123;-72
2023/01/29 03:49:31;;;;;;;10.85;6.43;;;;;;;1.76;100.00;102006.66;5081200;28;20437;-72
2023/01/29 03:52:03;;;;;;;10.02;5.55;;;;;;;1.79;100.00;102006.25;5079163;28;20028;-73
2023/01/29 03:54:28;;;;;;;11.13;5.07;;;;;;;1.79;100.00;102006.25;5113148;28;20087;-72
2023/01/29 03:56:56;;;;;;;10.73;5.55;;;;;;;1.77;100.00;102008.31;5102264;28;21671;-72
2023/01/29 03:59:38;;;;;;;11.38;5.70;;;;;;;1.72;100.00;102011.66;5094074;28;20060;-72
2023/01/29 04:02:18;;;;;;;11.68;5.78;;;;;;;1.71;100.00;102011.88;5043731;28;20035;-72
2023/01/29 04:04:44;;;;;;;11.52;6.35;;;;;;;1.71;100.00;102025.56;5086285;28;20107;-72
2023/01/29 04:07:12;;;;;;;13.00;6.35;;;;;;;1.68;100.00;102020.50;5077429;28;20120;-72
2023/01/29 04:09:48;;;;;;;10.85;6.13;;;;;;;1.67;100.00;102027.88;5094012;28;20074;-72
2023/01/29 04:12:14;;;;;;;15.13;6.35;;;;;;;1.65;100.00;102026.38;5077357;28;20035;-72
2023/01/29 04:14:40;;;;;;;9.52;5.68;;;;;;;1.67;100.00;102030.59;5093529;28;20020;-72
2023/01/29 04:17:33;;;;;;;10.43;5.80;;;;;;;1.65;100.00;102026.38;5095006;28;20515;-72
2023/01/29 04:19:59;;;;;;;8.25;5.47;;;;;;;1.64;100.00;102030.97;5094056;28;20082;-72
2023/01/29 04:22:36;;;;;;;13.95;5.63;;;;;;;1.64;100.00;102030.97;5081240;28;20036;-72
2023/01/29 04:25:16;;;;;;;11.20;5.80;;;;;;;1.63;100.00;102022.97;5076865;28;20024;-72
2023/01/29 04:28:05;;;;;;;11.40;5.97;;;;;;;1.62;100.00;102026.75;5046672;28;20030;-72
2023/01/29 04:30:48;;;;;;;10.00;5.80;;;;;;;1.63;100.00;102021.06;5087642;28;20034;-72
2023/01/29 04:33:32;;;;;;;12.52;6.00;;;;;;;1.64;100.00;102036.44;5102847;28;20027;-72
2023/01/29 04:36:34;;;;;;;11.27;5.80;;;;;;;1.64;100.00;102027.38;5090603;28;20032;-72
2023/01/29 04:39:03;;;;;;;8.05;4.95;;;;;;;1.62;100.00;102015.81;5067170;28;20076;-72
2023/01/29 04:41:35;;;;;;;9.48;5.68;;;;;;;1.63;100.00;102028.44;5093563;28;20028;-72
2023/01/29 04:44:06;;;;;;;8.48;5.40;;;;;;;1.62;100.00;102026.75;5076909;28;20035;-72
2023/01/29 04:47:08;;;;;;;8.82;4.90;;;;;;;1.62;100.00;102026.75;5094716;28;20089;-72
2023/01/29 04:49:39;;;;;;;8.95;4.72;;;;;;;1.62;100.00;102021.28;5109056;28;20027;-72
2023/01/29 04:52:11;;;;;;;8.63;5.22;;;;;;;1.59;100.00;102021.66;5102997;28;20111;-72
2023/01/29 04:55:12;;;;;;;8.43;4.63;;;;;;;1.60;100.00;102020.63;5100921;28;20391;-72
2023/01/29 04:57:53;;;;;;;7.63;4.40;;;;;;;1.61;100.00;102031.38;5086824;28;20365;-72
2023/01/29 05:00:40;;;;;;;9.00;4.97;;;;;;;1.59;100.00;102027.13;5078686;28;20030;-72
2023/01/29 05:03:08;;;;;;;7.00;5.20;;;;;;;1.58;100.00;102029.03;5061576;28;20051;-72
2023/01/29 05:05:34;;;;;;;9.20;4.90;;;;;;;1.60;100.00;102024.22;5076266;28;20028;-72
2023/01/29 05:07:59;;;;;;;9.05;4.80;;;;;;;1.61;100.00;102019.56;5112006;28;20039;-72
2023/01/29 05:10:24;;;;;;;8.88;5.50;;;;;;;1.58;100.00;102019.97;5088751;28;20027;-72
2023/01/29 05:13:10;;;;;;;8.60;4.75;;;;;;;1.58;100.00;102014.50;5086786;28;20380;-72
2023/01/29 05:15:46;;;;;;;8.23;4.68;;;;;;;1.60;100.00;102016.00;5089547;28;20028;-72
2023/01/29 05:18:11;;;;;;;7.60;4.90;;;;;;;1.62;100.00;102015.81;5080081;28;20028;-72
2023/01/29 05:20:38;;;;;;;9.18;5.55;;;;;;;1.60;100.00;102017.88;5098177;28;20082;-72
2023/01/29 05:23:03;;;;;;;9.85;5.28;;;;;;;1.62;100.00;102015.81;5070207;28;20028;-72
2023/01/29 05:25:31;;;;;;;7.88;5.20;;;;;;;1.64;100.00;102013.69;5100524;28;20065;-72
2023/01/29 05:30:57;;;;;;;8.07;5.40;;;;;;;1.62;100.00;102015.81;5039831;28;20096;-72
2023/01/29 05:33:26;;;;;;;9.48;5.35;;;;;;;1.62;100.00;102026.75;5024998;28;20037;-72
2023/01/29 05:35:51;;;;;;;8.30;4.97;;;;;;;1.64;100.00;102028.22;5045062;28;20032;-72
2023/01/29 05:38:17;;;;;;;8.57;5.55;;;;;;;1.62;100.00;102029.50;5046707;28;20049;-72
2023/01/29 05:40:43;;;;;;;9.65;6.60;;;;;;;1.63;100.00;102033.94;5018584;28;20037;-72
2023/01/29 05:43:15;;;;;;;8.45;5.28;;;;;;;1.63;100.00;102039.41;5035306;28;20075;-72
2023/01/29 05:45:40;;;;;;;11.43;6.32;;;;;;;1.66;100.00;102039.00;5034696;28;20033;-72
2023/01/29 05:48:06;;;;;;;11.23;7.13;;;;;;;1.62;100.00;102032.25;5035139;28;20036;-72
2023/01/29 05:50:31;;;;;;;13.43;7.43;;;;;;;1.63;100.00;102050.34;5020572;28;20395;-72
2023/01/29 05:53:00;;;;;;;17.33;9.65;;;;;;;1.63;100.00;102045.72;5026189;28;20044;-72
2023/01/29 05:55:28;;;;;;;15.48;9.45;;;;;;;1.61;100.00;102046.97;5037000;28;20096;-72
2023/01/29 05:57:53;;;;;;;15.75;8.80;;;;;;;1.60;100.00;102048.00;5046827;28;20037;-72
2023/01/29 06:00:19;;;;;;;12.98;7.95;;;;;;;1.61;100.00;102049.69;5033034;28;20048;-72
2023/01/29 06:02:45;;;;;;;14.13;8.18;;;;;;;1.62;100.00;102054.16;5034403;28;20043;-72
2023/01/29 06:05:10;;;;;;;15.18;9.15;;;;;;;1.61;100.00;102049.69;5041589;28;20024;-72
2023/01/29 06:07:36;;;;;;;14.32;8.77;;;;;;;1.60;100.00;102045.28;5096161;28;20531;-72
2023/01/29 06:10:02;;;;;;;12.32;8.18;;;;;;;1.58;100.00;102048.19;5097471;28;20042;-72
2023/01/29 06:12:28;;;;;;;14.32;8.20;;;;;;;1.58;100.00;102045.47;5097403;28;20028;-73
2023/01/29 06:14:53;;;;;;;11.85;7.93;;;;;;;1.60;100.00;102051.59;5095755;28;20080;-72
2023/01/29 06:17:19;;;;;;;13.27;8.35;;;;;;;1.62;100.00;102043.19;5096956;28;20043;-72
2023/01/29 06:19:44;;;;;;;13.15;7.75;;;;;;;1.66;100.00;102044.47;5092781;28;20086;-72
2023/01/29 06:22:09;;;;;;;10.55;7.28;;;;;;;1.65;100.00;102043.63;5101457;28;20028;-72
2023/01/29 06:24:35;;;;;;;11.02;7.40;;;;;;;1.66;100.00;102045.31;5110912;28;20484;-73
2023/01/29 06:27:01;;;;;;;15.43;7.47;;;;;;;1.66;100.00;102047.22;5106188;28;20076;-72
2023/01/29 06:29:26;;;;;;;10.43;7.70;;;;;;;1.65;100.00;102046.38;5099603;28;20032;-73
2023/01/29 06:31:51;;;;;;;9.48;6.57;;;;;;;1.66;100.00;102044.47;5107280;28;20028;-72
2023/01/29 06:34:17;;;;;;;11.00;6.97;;;;;;;1.69;100.00;102047.66;5092451;28;20032;-72
2023/01/29 06:36:42;;;;;;;10.52;6.97;;;;;;;1.66;100.00;102049.97;5106503;28;20031;-72
2023/01/29 06:39:08;;;;;;;14.65;6.95;;;;;;;1.68;100.00;102048.72;5062432;28;20064;-72
2023/01/29 06:41:33;;;;;;;12.23;6.88;;;;;;;1.70;100.00;102056.72;5075019;28;20094;-72
2023/01/29 06:43:59;;;;;;;12.88;6.60;;;;;;;1.70;100.00;102051.25;5054421;28;20396;-72
2023/01/29 06:46:25;;;;;;;10.15;6.63;;;;;;;1.68;100.00;102048.72;5076234;28;20082;-72
2023/01/29 06:48:50;;;;;;;13.90;7.43;;;;;;;1.69;100.00;102049.56;5080276;28;20020;-72
2023/01/29 06:51:16;;;;;;;10.77;6.90;;;;;;;1.69;100.00;102044.91;5087117;28;20040;-72
2023/01/29 06:53:41;;;;;;;9.63;6.57;;;;;;;1.70;100.00;102048.50;5073780;28;20027;-72
2023/01/29 06:56:07;;;;;;;9.30;6.05;;;;;;;1.69;100.00;102050.41;5087254;28;20385;-72
2023/01/29 06:58:32;;;;;;;14.57;7.28;;;;;;;1.69;100.00;102044.91;5074987;28;20039;-73
2023/01/29 07:01:08;;;;;;;9.88;6.70;;;;;;;1.70;100.00;102045.75;5074662;28;20436;-72
2023/01/29 07:03:34;;;;;;;11.50;6.53;;;;;;;1.69;100.00;102044.09;5075840;28;20032;-73
2023/01/29 07:06:00;;;;;;;12.55;6.13;;;;;;;1.70;100.00;102048.50;5085328;28;20078;-72
2023/01/29 07:08:25;;;;;;;11.23;7.53;;;;;;;1.71;100.00;102044.75;5074668;28;20025;-73
2023/01/29 07:10:51;;;;;;;11.75;6.90;;;;;;;1.69;100.00;102041.34;5074823;28;20037;-72
2023/01/29 07:13:16;;;;;;;13.77;6.85;;;;;;;1.70;100.00;102040.28;5089593;28;20081;-72
2023/01/29 07:15:43;;;;;;;11.30;7.10;;;;;;;1.71;100.00;102044.75;5075582;28;20107;-72
2023/01/29 07:18:11;;;;;;;10.38;6.82;;;;;;;1.69;100.00;102044.09;5075603;28;20035;-72
2023/01/29 07:20:38;;;;;;;11.10;7.15;;;;;;;1.67;100.00;102046.16;5066758;28;20028;-72
2023/01/29 07:23:03;;;;;;;12.85;7.38;;;;;;;1.63;100.00;102047.63;5048059;28;20027;-72
2023/01/29 07:25:29;;;;;;;11.88;7.75;;;;;;;1.63;100.00;102040.25;5051218;28;20028;-72
2023/01/29 07:27:55;;;;;;;13.05;7.60;;;;;;;1.63;100.00;102048.47;5075276;28;20037;-72
2023/01/29 07:30:20;;;;;;;12.15;7.82;;;;;;;1.67;100.00;102046.16;5074256;28;20071;-72
2023/01/29 07:32:46;;;;;;;12.00;8.80;;;;;;;1.66;100.00;102045.31;5088799;28;20031;-72
2023/01/29 07:35:11;;;;;;;17.02;9.88;;;;;;;1.65;100.00;102051.00;5075347;28;20028;-72
2023/01/29 07:37:37;;;;;;;17.15;10.40;;;;;;;1.67;100.00;102049.78;5091299;28;20040;-73
2023/01/29 07:40:04;;;;;;;16.73;10.32;;;;;;;1.66;100.00;102049.97;5088156;28;20038;-72
2023/01/29 07:42:29;;;;;;;15.65;10.05;;;;;;;1.64;100.00;102038.34;5097722;28;20124;-72
2023/01/29 07:44:55;;;;;;;17.38;9.95;;;;;;;1.68;100.00;102039.66;5115821;28;20028;-72
2023/01/29 07:47:20;;;;;;;14.63;9.60;;;;;;;1.65;100.00;102037.31;5097752;28;20039;-72
2023/01/29 07:49:46;;;;;;;14.77;9.70;;;;;;;1.64;100.00;102041.09;5108802;28;20476;-72
2023/01/29 07:52:11;;;;;;;14.98;9.57;;;;;;;1.63;100.00;102033.94;5081932;28;20028;-72
2023/01/29 07:54:37;;;;;;;14.48;8.98;;;;;;;1.63;100.00;102040.25;5084820;28;20028;-72
2023/01/29 07:57:02;;;;;;;15.75;8.98;;;;;;;1.62;100.00;102035.81;5097292;28;20023;-72
2023/01/29 07:59:28;;;;;;;13.98;8.88;;;;;;;1.66;100.00;102034.38;5066766;28;20032;-71
2023/01/29 08:01:53;;;;;;;11.93;8.25;;;;;;;1.66;100.00;102028.03;5045588;28;20598;-72
2023/01/29 08:04:19;;;;;;;13.13;8.40;;;;;;;1.64;100.00;102030.13;5106677;27;20038;-72
2023/01/29 08:06:45;;;;;;;14.80;8.38;;;;;;;1.63;100.00;102034.75;5113934;27;20023;-72
2023/01/29 08:09:10;;;;;;;13.13;8.02;;;;;;;1.64;100.00;102036.44;5104113;28;20032;-72
2023/01/29 08:11:36;;;;;;;13.02;8.43;;;;;;;1.63;100.00;102032.03;5106668;28;20031;-72
2023/01/29 08:14:01;;;;;;;12.15;7.93;;;;;;;1.67;100.00;102035.22;5104310;28;20032;-72
2023/01/29 08:16:27;;;;;;;13.50;7.93;;;;;;;1.66;100.00;102028.03;5094590;28;20392;-72
2023/01/29 08:18:52;;;;;;;16.05;8.13;;;;;;;1.72;100.00;102035.47;5096888;28;20024;-72
2023/01/29 08:21:18;;;;;;;11.15;7.50;;;;;;;1.68;100.00;102031.44;5111523;28;20039;-72
2023/01/29 08:23:44;;;;;;;15.35;7.82;;;;;;;1.68;100.00;102023.22;5107296;28;20028;-72
2023/01/29 08:26:09;;;;;;;10.75;7.15;;;;;;;1.68;100.00;102026.81;5080260;28;20111;-72
2023/01/29 08:28:36;;;;;;;10.18;7.10;;;;;;;1.68;100.00;102025.97;5106023;28;20035;-72
2023/01/29 08:31:02;;;;;;;12.90;7.97;;;;;;;1.72;100.00;102024.50;5097997;28;20802;-73
2023/01/29 08:33:28;;;;;;;10.35;7.10;;;;;;;1.73;100.00;102027.06;5105450;28;20085;-72
2023/01/29 08:35:53;;;;;;;12.63;8.32;;;;;;;1.73;100.00;102027.06;5097859;28;20024;-71
2023/01/29 08:38:19;;;;;;;16.58;8.15;;;;;;;1.75;100.00;102029.59;5047032;28;20059;-71
2023/01/29 08:40:44;;;;;;;14.30;7.85;;;;;;;1.75;100.00;102027.69;5083716;28;20032;-71
2023/01/29 08:43:10;;;;;;;14.07;8.40;;;;;;;1.78;100.00;102038.28;5115279;28;20043;-68
2023/01/29 08:45:38;;;;;;;13.10;8.43;;;;;;;1.81;100.00;102039.75;5076291;28;20064;-73
2023/01/29 08:48:04;;;;;;;12.77;8.63;;;;;;;1.82;100.00;102041.47;5065782;28;20024;-73
2023/01/29 08:50:30;;;;;;;14.98;8.60;;;;;;;1.85;100.00;102032.00;5100262;28;20412;-72
2023/01/29 08:52:57;;;;;;;14.60;8.30;;;;;;;1.86;100.00;102030.94;5069945;28;20077;-72
2023/01/29 08:55:23;;;;;;;14.50;8.23;;;;;;;1.89;100.00;102033.28;5080079;28;20028;-72
2023/01/29 08:57:48;;;;;;;13.35;7.85;;;;;;;1.90;100.00;102026.78;5083635;28;20035;-72
2023/01/29 09:00:14;;;;;;;12.52;8.00;;;;;;;1.93;100.00;102019.00;5079881;28;20024;-72
2023/01/29 09:02:40;;;;;;;14.27;8.30;;;;;;;1.96;100.00;102023.22;5096938;28;20452;-72
2023/01/29 09:05:06;;;;;;;16.00;8.68;;;;;;;1.98;100.00;102030.19;5107052;28;20384;-72
2023/01/29 09:07:31;;;;;;;14.63;8.43;;;;;;;2.00;100.00;102030.00;5070602;28;20356;-72
2023/01/29 09:09:57;;;;;;;14.65;9.07;;;;;;;2.01;100.00;102029.81;5093410;28;20031;-73
2023/01/29 09:12:22;;;;;;;18.10;9.43;;;;;;;2.05;100.00;102029.41;5105041;28;20031;-72
2023/01/29 09:14:48;;;;;;;15.65;9.15;;;;;;;2.08;100.00;102042.69;5097673;28;20031;-72
2023/01/29 09:17:14;;;;;;;17.90;9.85;;;;;;;2.10;100.00;102054.31;5093232;28;20032;-72
2023/01/29 09:19:40;;;;;;;13.57;9.23;;;;;;;2.13;100.00;102056.66;5101472;28;20074;-72
2023/01/29 09:22:05;;;;;;;15.25;9.15;;;;;;;2.15;100.00;102055.41;5098810;28;20032;-72
2023/01/29 09:24:31;;;;;;;16.35;9.68;;;;;;;2.19;100.00;102044.88;5062035;28;20104;-72
2023/01/29 09:26:57;;;;;;;13.73;9.40;;;;;;;2.21;100.00;102048.28;5087756;28;20024;-72
2023/01/29 09:29:22;;;;;;;17.02;10.30;;;;;;;2.22;100.00;102050.78;5089391;28;20527;-73
2023/01/29 09:31:48;;;;;;;17.15;11.10;;;;;;;2.24;100.00;102053.34;5103554;28;20024;-73
2023/01/29 09:34:13;;;;;;;21.02;12.48;;;;;;;2.27;100.00;102055.69;5102397;28;20028;-73
2023/01/29 09:36:39;;;;;;;17.33;10.65;;;;;;;2.29;100.00;102050.84;5092394;28;20127;-72
2023/01/29 09:39:04;;;;;;;21.60;10.45;;;;;;;2.33;100.00;102056.78;5083933;28;20497;-73
2023/01/29 09:41:51;;;;;;;14.98;9.45;;;;;;;2.35;100.00;102058.28;5097988;28;20032;-72
2023/01/29 09:44:18;;;;;;;15.40;10.00;;;;;;;2.38;100.00;102049.63;5096875;28;20042;-73
2023/01/29 09:46:46;;;;;;;17.85;10.07;;;;;;;2.42;100.00;102048.19;5096327;28;20053;-73
2023/01/29 09:49:23;;;;;;;16.80;10.13;;;;;;;2.43;100.00;102041.66;5070717;28;20036;-73
2023/01/29 09:51:52;;;;;;;16.58;10.77;;;;;;;2.47;100.00;102045.66;5086353;28;20034;-73
2023/01/29 09:54:35;;;;;;;17.45;10.60;;;;;;;2.50;100.00;102041.69;5099064;28;20024;-72
2023/01/29 09:57:00;;;;;;;16.33;9.70;;;;;;;2.53;100.00;102034.94;5083454;28;20032;-72
2023/01/29 09:59:26;;;;;;;18.95;10.75;;;;;;;2.57;100.00;102036.25;5108915;28;20031;-73
2023/01/29 10:02:09;;;;;;;17.58;10.65;;;;;;;2.60;100.00;102046.81;5098497;28;20049;-73
2023/01/29 10:04:41;;;;;;;21.65;13.02;;;;;;;2.62;100.00;102040.06;5093007;28;20110;-73
2023/01/29 10:07:28;;;;;;;19.50;11.70;;;;;;;2.65;100.00;102036.06;5079430;28;20028;-73
2023/01/29 10:10:05;;;;;;;25.45;13.57;;;;;;;2.67;100.00;102039.44;5093112;28;20033;-72
2023/01/29 10:12:55;;;;;;;16.45;10.95;;;;;;;2.69;100.00;102042.81;5108872;28;20468;-72
2023/01/29 10:15:48;;;;;;;19.80;12.40;;;;;;;2.74;100.00;102054.03;5087340;28;20042;-72
2023/01/29 10:18:23;;;;;;;21.23;12.23;;;;;;;2.77;100.00;102056.38;5097835;28;20036;-72
2023/01/29 10:21:16;;;;;;;16.83;11.57;;;;;;;2.81;100.00;102054.91;5099611;28;20396;-72
2023/01/29 10:24:12;;;;;;;20.55;13.10;;;;;;;2.84;100.00;102053.66;5079925;28;20024;-72
2023/01/29 10:26:39;;;;;;;20.00;12.07;;;;;;;2.86;100.00;102046.06;5096111;28;20036;-73
2023/01/29 10:29:05;;;;;;;18.75;12.32;;;;;;;2.89;100.00;102045.66;5082862;28;20043;-72
2023/01/29 10:31:33;;;;;;;18.38;12.40;;;;;;;2.91;100.00;102052.63;5095171;28;20028;-73
2023/01/29 10:34:04;;;;;;;19.13;12.77;;;;;;;2.97;100.00;102044.63;5109066;28;20031;-73
2023/01/29 10:36:42;;;;;;;22.42;13.32;;;;;;;2.99;100.00;102045.28;5103350;28;20035;-72
2023/01/29 10:39:18;;;;;;;20.75;12.25;;;;;;;3.03;100.00;102054.78;5099074;28;20051;-72
2023/01/29 10:42:11;;;;;;;22.95;14.70;;;;;;;3.07;100.00;102047.84;5088951;28;20055;-71
2023/01/29 10:44:43;;;;;;;20.77;12.23;;;;;;;3.10;100.00;102047.41;5103975;28;20027;-72
2023/01/29 10:47:33;;;;;;;21.73;12.83;;;;;;;3.12;100.00;102039.78;5083011;28;20026;-71
2023/01/29 10:50:33;;;;;;;22.35;12.32;;;;;;;3.18;100.00;102039.00;5111460;28;20981;-72
2023/01/29 10:53:05;;;;;;;18.80;12.75;;;;;;;3.21;100.00;102038.56;5051645;28;20024;-71
2023/01/29 10:55:50;;;;;;;20.52;13.10;;;;;;;3.25;100.00;102037.09;5093977;28;20036;-71
2023/01/29 10:58:27;;;;;;;22.77;12.68;;;;;;;3.30;100.00;102037.31;5084980;28;20032;-72
2023/01/29 11:00:53;;;;;;;20.25;13.27;;;;;;;3.35;100.00;102039.44;5107757;28;20097;-71
2023/01/29 11:03:23;;;;;;;23.55;14.63;;;;;;;3.39;100.00;102037.13;5096371;28;20028;-71
2023/01/29 11:06:20;;;;;;;20.08;12.55;;;;;;;3.42;100.00;102039.44;5087598;28;20020;-72
2023/01/29 11:08:53;;;;;;;21.23;13.15;;;;;;;3.46;100.00;102038.00;5098608;28;20035;-71
2023/01/29 11:11:21;;;;;;;20.35;13.73;;;;;;;3.50;100.00;102037.34;5046936;28;20502;-72
2023/01/29 11:13:49;;;;;;;23.15;13.85;;;;;;;3.55;100.00;102028.47;5095062;28;20028;-71
2023/01/29 11:16:15;;;;;;;21.65;13.30;;;;;;;3.58;100.00;102028.06;5110552;28;20032;-72
2023/01/29 11:18:58;;;;;;;21.77;14.13;;;;;;;3.62;100.00;102032.06;5107476;28;20024;-72
2023/01/29 11:21:24;;;;;;;;;;;;;;;3.67;100.00;102029.53;5076308;28;20028;-72
2023/01/29 11:23:50;;;;;;;24.33;14.02;;;;;;;3.69;100.00;102023.84;5104868;28;19972;-71
2023/01/29 11:26:21;;;;;;;20.17;13.40;;;;;;;3.72;100.00;102023.41;5065232;28;20039;-71
2023/01/29 11:28:48;;;;;;;20.65;13.10;;;;;;;3.77;100.00;102021.72;5068029;28;20460;-71
2023/01/29 11:31:20;;;;;;;18.95;12.43;;;;;;;3.79;100.00;102019.59;5077993;28;20039;-72
2023/01/29 11:33:46;;;;;;;;;;;;;;;3.85;100.00;102023.41;5078595;28;20153;-72
2023/01/29 11:36:27;;;;;;;20.95;12.55;;;;;;;3.87;100.00;102004.78;5069813;28;19932;-72
2023/01/29 11:39:07;;;;;;;25.80;13.25;;;;;;;3.88;100.00;102013.91;5081742;28;20043;-72
2023/01/29 11:41:57;;;;;;;20.27;12.68;;;;;;;3.93;100.00;102011.38;5055512;28;20055;-72
2023/01/29 11:44:38;;;;;;;20.45;12.93;;;;;;;3.98;100.00;102006.03;5091106;28;20055;-72
2023/01/29 11:47:13;;;;;;;20.83;13.35;;;;;;;4.04;100.00;102005.22;5071556;28;20384;-72
2023/01/29 11:49:40;;;;;;;21.48;13.43;;;;;;;4.08;100.00;101994.63;5090336;28;20059;-72
2023/01/29 11:52:07;;;;;;;22.60;12.88;;;;;;;4.12;100.00;101995.88;5092423;28;20035;-72
2023/01/29 11:54:46;;;;;;;20.88;13.18;;;;;;;4.15;100.00;101990.81;5060652;28;20099;-72
2023/01/29 11:57:29;;;;;;;19.77;13.07;;;;;;;4.20;100.00;101993.72;5091509;28;20036;-72
2023/01/29 11:59:56;;;;;;;19.95;12.57;;;;;;;4.25;100.00;101987.59;5089709;28;20682;-72
2023/01/29 12:02:36;;;;;;;23.40;13.65;;;;;;;4.29;100.00;101979.75;5072475;28;20055;-72